Time;durP1;ratioP1;P1;durP2;ratioP2;P2;SDS_P1;SDS_P2;PMS_P1;PMS_P2;Temp;Humidity;BMP_temperature;BMP_pressure;BME280_temperature;BME280_humidity;BME280_pressure;Samples;Min_cycle;Max_cycle;Signal;HPM_P1;HPM_P2
2021/06/07 00:02:24;;;;;;;11.00;7.10;;;19.70;88.90;;;;;;5083562;28;20218;-71
2021/06/07 00:04:52;;;;;;;8.47;5.87;;;19.70;88.90;;;;;;5086991;28;20209;-71
2021/06/07 00:07:19;;;;;;;9.93;6.50;;;19.70;88.90;;;;;;5067468;28;20210;-71
2021/06/07 00:09:45;;;;;;;8.53;6.83;;;19.70;88.80;;;;;;5086882;28;20225;-71
2021/06/07 00:12:16;;;;;;;9.07;7.27;;;19.70;88.80;;;;;;5083870;28;20218;-71
2021/06/07 00:14:44;;;;;;;8.13;7.10;;;19.70;88.90;;;;;;5083259;28;20205;-71
2021/06/07 00:17:11;;;;;;;8.20;6.53;;;19.70;89.10;;;;;;5083225;28;20633;-71
2021/06/07 00:19:40;;;;;;;7.47;6.77;;;19.70;89.10;;;;;;5086176;28;20742;-71
2021/06/07 00:22:08;;;;;;;9.53;7.27;;;19.70;89.30;;;;;;5081540;28;20217;-71
2021/06/07 00:24:35;;;;;;;12.73;6.80;;;19.60;89.10;;;;;;5083331;28;20217;-71
2021/06/07 00:27:03;;;;;;;15.40;7.23;;;19.60;89.10;;;;;;5085869;28;20664;-71
2021/06/07 00:29:30;;;;;;;7.67;6.93;;;19.50;89.00;;;;;;5083987;28;20278;-71
2021/06/07 00:31:57;;;;;;;7.23;6.53;;;19.60;89.20;;;;;;5085091;28;20554;-72
2021/06/07 00:34:25;;;;;;;12.70;7.23;;;19.60;89.30;;;;;;5084152;28;20240;-71
2021/06/07 00:36:52;;;;;;;7.57;6.80;;;19.60;89.30;;;;;;5084967;28;20214;-71
2021/06/07 00:39:19;;;;;;;9.40;7.80;;;19.60;89.20;;;;;;5084837;28;20216;-71
2021/06/07 00:41:48;;;;;;;13.27;6.77;;;19.60;89.10;;;;;;5080507;28;20221;-71
2021/06/07 00:44:20;;;;;;;8.63;6.80;;;19.60;89.10;;;;;;5080636;28;20222;-71
2021/06/07 00:46:48;;;;;;;8.30;6.63;;;19.60;89.30;;;;;;5082541;28;20213;-71
2021/06/07 00:49:15;;;;;;;8.90;6.80;;;19.60;89.70;;;;;;5083855;28;20279;-71
2021/06/07 00:51:43;;;;;;;10.40;7.23;;;19.60;89.40;;;;;;5084559;28;20236;-71
2021/06/07 00:54:11;;;;;;;10.27;7.53;;;19.60;89.20;;;;;;5082539;28;20205;-71
2021/06/07 00:56:38;;;;;;;8.63;7.13;;;19.50;89.00;;;;;;5083229;28;20213;-71
2021/06/07 00:59:06;;;;;;;9.50;6.70;;;19.50;89.30;;;;;;5085410;28;20213;-71
2021/06/07 01:01:33;;;;;;;12.17;7.13;;;19.40;89.50;;;;;;5085374;28;20625;-71
2021/06/07 01:04:00;;;;;;;6.93;6.23;;;19.40;89.70;;;;;;5085850;28;20676;-71
2021/06/07 01:06:37;;;;;;;11.17;7.20;;;19.40;89.70;;;;;;5086431;28;20221;-71
2021/06/07 01:09:06;;;;;;;8.90;7.53;;;19.50;89.80;;;;;;5080985;28;20556;-71
2021/06/07 01:11:34;;;;;;;8.73;7.20;;;19.50;89.60;;;;;;5084681;28;20243;-71
2021/06/07 01:14:02;;;;;;;10.13;7.30;;;19.50;89.40;;;;;;5082727;28;20216;-71
2021/06/07 01:16:29;;;;;;;10.23;7.70;;;19.40;89.30;;;;;;5085020;28;20205;-71
2021/06/07 01:18:56;;;;;;;9.57;8.10;;;19.40;89.40;;;;;;5082675;28;20270;-71
2021/06/07 01:21:25;;;;;;;11.73;7.03;;;19.30;89.60;;;;;;5081538;28;20220;-71
2021/06/07 01:23:55;;;;;;;12.00;8.53;;;19.20;89.80;;;;;;5082783;28;20624;-71
2021/06/07 01:26:25;;;;;;;9.30;7.87;;;19.20;89.90;;;;;;5086318;28;20210;-71
2021/06/07 01:28:54;;;;;;;13.57;9.33;;;19.20;90.00;;;;;;5082343;28;20225;-71
2021/06/07 01:31:22;;;;;;;16.20;8.97;;;19.30;90.00;;;;;;5084719;28;20237;-71
2021/06/07 01:33:56;;;;;;;9.80;8.53;;;19.30;89.90;;;;;;5085481;28;20241;-71
2021/06/07 01:36:24;;;;;;;14.23;8.67;;;19.30;90.00;;;;;;5081753;28;20243;-71
2021/06/07 01:38:51;;;;;;;17.67;9.07;;;19.30;89.90;;;;;;5082373;28;20209;-71
2021/06/07 01:41:19;;;;;;;12.80;9.70;;;19.30;89.90;;;;;;5085260;28;20217;-71
2021/06/07 01:43:46;;;;;;;12.87;9.90;;;19.30;89.90;;;;;;5084055;28;20575;-71
2021/06/07 01:46:13;;;;;;;12.60;9.27;;;19.20;89.80;;;;;;5077728;28;20212;-71
2021/06/07 01:48:41;;;;;;;10.60;9.47;;;19.20;89.80;;;;;;5085058;28;20213;-71
2021/06/07 01:51:08;;;;;;;10.10;8.87;;;19.10;89.80;;;;;;5077890;28;20529;-71
2021/06/07 01:53:37;;;;;;;11.13;8.83;;;19.10;89.90;;;;;;5077864;28;20620;-71
2021/06/07 01:56:07;;;;;;;10.80;8.90;;;19.10;90.00;;;;;;5084905;28;20281;-71
2021/06/07 01:58:36;;;;;;;12.50;9.53;;;19.10;90.00;;;;;;5084969;28;20205;-71
2021/06/07 02:01:16;;;;;;;12.43;9.27;;;19.10;89.90;;;;;;5077228;28;20240;-71
2021/06/07 02:03:44;;;;;;;11.03;9.90;;;19.10;89.90;;;;;;5079788;28;20309;-71
2021/06/07 02:06:14;;;;;;;11.30;9.37;;;19.10;90.00;;;;;;5083685;28;20216;-71
2021/06/07 02:08:41;;;;;;;12.80;10.13;;;19.10;90.00;;;;;;5081221;28;20648;-71
2021/06/07 02:11:12;;;;;;;11.20;10.13;;;19.10;90.00;;;;;;5081533;28;20244;-72
2021/06/07 02:13:39;;;;;;;16.10;11.37;;;19.10;90.00;;;;;;5083866;28;20205;-71
2021/06/07 02:16:09;;;;;;;14.27;10.97;;;19.10;90.00;;;;;;5079126;28;20658;-71
2021/06/07 02:18:37;;;;;;;14.57;10.33;;;19.10;90.00;;;;;;5084704;28;20213;-71
2021/06/07 02:21:06;;;;;;;18.93;10.57;;;19.00;90.00;;;;;;5083887;28;20224;-71
2021/06/07 02:23:33;;;;;;;11.20;10.20;;;19.00;89.80;;;;;;5078363;28;20577;-71
2021/06/07 02:26:00;;;;;;;14.43;10.87;;;18.90;89.80;;;;;;5083366;28;20247;-71
2021/06/07 02:28:28;;;;;;;18.00;11.43;;;18.90;90.00;;;;;;5085358;28;20213;-71
2021/06/07 02:30:56;;;;;;;13.97;12.37;;;18.80;90.00;;;;;;5081001;28;20229;-71
2021/06/07 02:33:23;;;;;;;13.63;10.97;;;18.80;90.00;;;;;;5083321;28;20244;-71
2021/06/07 02:35:51;;;;;;;14.80;11.33;;;18.80;90.00;;;;;;5081038;28;20220;-71
2021/06/07 02:38:18;;;;;;;18.77;12.53;;;18.70;90.10;;;;;;5076433;28;20220;-72
2021/06/07 02:52:30;;;;;;;20.23;13.73;;;18.70;89.80;;;;;;5160765;27;239941;-71
2021/06/07 02:54:57;;;;;;;17.00;11.83;;;18.80;89.90;;;;;;5183835;27;20217;-71
2021/06/07 02:57:24;;;;;;;17.37;12.60;;;18.70;89.70;;;;;;5181094;27;20210;-71
2021/06/07 02:59:51;;;;;;;13.27;11.97;;;18.60;89.70;;;;;;5182949;27;20277;-71
2021/06/07 03:02:18;;;;;;;16.13;11.90;;;18.60;89.80;;;;;;5177260;27;20206;-71
2021/06/07 03:04:45;;;;;;;13.00;11.70;;;18.60;90.00;;;;;;5173420;27;20216;-71
2021/06/07 03:07:12;;;;;;;15.70;12.67;;;18.60;90.00;;;;;;5182888;27;20217;-71
2021/06/07 03:09:40;;;;;;;16.80;12.63;;;18.50;90.00;;;;;;5183358;27;20224;-71
2021/06/07 03:12:08;;;;;;;13.50;12.10;;;18.50;90.00;;;;;;5183967;27;20224;-71
2021/06/07 03:14:37;;;;;;;13.63;12.33;;;18.40;90.00;;;;;;5185503;27;20206;-71
2021/06/07 03:17:04;;;;;;;15.20;12.90;;;18.40;90.00;;;;;;5177867;27;20225;-71
2021/06/07 03:19:31;;;;;;;16.17;12.73;;;18.40;90.10;;;;;;5184953;27;20209;-71
2021/06/07 03:21:58;;;;;;;23.43;13.70;;;18.30;90.00;;;;;;5183456;27;20241;-71
2021/06/07 03:24:25;;;;;;;20.53;14.03;;;18.20;90.10;;;;;;5183193;27;20554;-71
2021/06/07 03:26:52;;;;;;;15.17;13.53;;;18.20;90.20;;;;;;5165834;27;20210;-71
2021/06/07 03:29:19;;;;;;;16.67;13.30;;;18.20;90.30;;;;;;5181132;27;20575;-71
2021/06/07 03:31:46;;;;;;;15.67;12.77;;;18.20;90.40;;;;;;5176738;27;20742;-71
2021/06/07 03:34:13;;;;;;;15.83;14.03;;;18.20;90.40;;;;;;5181672;27;20233;-71
2021/06/07 03:36:40;;;;;;;16.73;13.70;;;18.20;90.40;;;;;;5183001;27;20217;-71
2021/06/07 03:39:09;;;;;;;13.77;12.27;;;18.20;90.30;;;;;;5183417;27;20300;-71
2021/06/07 03:41:36;;;;;;;14.50;13.17;;;18.20;90.20;;;;;;5180981;27;20834;-71
2021/06/07 03:44:03;;;;;;;24.13;13.30;;;18.20;90.20;;;;;;5184637;27;20209;-71
2021/06/07 03:46:30;;;;;;;16.43;13.57;;;18.20;90.20;;;;;;5181429;27;20245;-71
2021/06/07 03:48:57;;;;;;;15.53;13.80;;;18.20;90.30;;;;;;5182555;27;20202;-71
2021/06/07 03:51:24;;;;;;;14.37;12.87;;;18.20;90.30;;;;;;5180403;27;20261;-71
2021/06/07 03:53:51;;;;;;;15.03;13.53;;;18.20;90.30;;;;;;5167539;27;20230;-71
2021/06/07 03:56:18;;;;;;;16.70;13.90;;;18.30;90.40;;;;;;5169851;27;20207;-71
2021/06/07 03:58:46;;;;;;;15.33;12.17;;;18.30;90.30;;;;;;5166405;27;20229;-71
2021/06/07 04:01:13;;;;;;;18.93;12.67;;;18.30;90.20;;;;;;5166297;27;20241;-71
2021/06/07 04:03:40;;;;;;;17.73;13.23;;;18.30;90.20;;;;;;5166375;27;20632;-71
2021/06/07 04:06:07;;;;;;;15.60;12.90;;;18.30;90.20;;;;;;5168381;27;20259;-71
2021/06/07 04:08:35;;;;;;;13.43;12.13;;;18.40;90.20;;;;;;5169448;27;20207;-71
2021/06/07 04:11:02;;;;;;;15.53;12.87;;;18.40;90.20;;;;;;5147168;27;20238;-71
2021/06/07 04:13:29;;;;;;;17.07;14.33;;;18.50;90.20;;;;;;5160933;27;20211;-71
2021/06/07 04:15:56;;;;;;;14.40;13.10;;;18.50;90.20;;;;;;5167528;27;20534;-71
2021/06/07 04:18:23;;;;;;;14.77;13.20;;;18.50;90.20;;;;;;5152552;27;20834;-71
2021/06/07 04:20:50;;;;;;;14.90;13.27;;;18.60;90.20;;;;;;5167948;27;20234;-71
2021/06/07 04:23:17;;;;;;;17.37;13.80;;;18.60;90.20;;;;;;5169229;27;20206;-71
2021/06/07 04:25:44;;;;;;;15.47;13.90;;;18.70;90.20;;;;;;5170459;27;20568;-71
2021/06/07 04:28:11;;;;;;;14.83;13.43;;;18.70;90.20;;;;;;5162376;27;20291;-71
2021/06/07 04:30:38;;;;;;;16.97;14.17;;;18.80;90.20;;;;;;5168784;27;20206;-71
2021/06/07 04:33:09;;;;;;;16.47;13.90;;;18.90;90.20;;;;;;5165947;27;20224;-71
2021/06/07 04:35:36;;;;;;;19.13;14.37;;;19.00;90.10;;;;;;5168920;27;20242;-71
2021/06/07 04:38:04;;;;;;;15.53;13.90;;;19.00;90.00;;;;;;5166206;27;20210;-71
2021/06/07 04:40:33;;;;;;;17.03;14.13;;;19.10;90.00;;;;;;5161966;27;20242;-71
2021/06/07 04:43:02;;;;;;;17.30;14.37;;;19.20;89.80;;;;;;5168448;27;20503;-71
2021/06/07 04:45:30;;;;;;;17.37;15.67;;;19.20;89.60;;;;;;5167735;27;20213;-71
2021/06/07 04:47:58;;;;;;;19.00;15.70;;;19.20;89.80;;;;;;5166501;27;20199;-71
2021/06/07 04:50:28;;;;;;;19.60;15.03;;;19.20;90.00;;;;;;5166202;27;20217;-71
2021/06/07 04:53:00;;;;;;;16.13;14.67;;;19.20;90.10;;;;;;5172435;27;20587;-71
2021/06/07 04:55:38;;;;;;;16.53;14.93;;;19.30;90.10;;;;;;5167719;27;20210;-71
2021/06/07 04:58:16;;;;;;;17.13;15.00;;;19.30;90.10;;;;;;5161699;27;20536;-71
2021/06/07 05:00:47;;;;;;;16.80;15.10;;;19.50;90.10;;;;;;5166184;27;20229;-71
2021/06/07 05:03:15;;;;;;;17.97;16.00;;;19.60;90.10;;;;;;5168447;27;20218;-71
2021/06/07 05:05:42;;;;;;;20.53;15.30;;;19.70;90.10;;;;;;5165545;27;20218;-71
2021/06/07 05:08:09;;;;;;;18.73;16.93;;;19.80;90.10;;;;;;5167432;27;20213;-71
2021/06/07 05:10:36;;;;;;;19.13;17.13;;;19.90;90.10;;;;;;5167080;27;20217;-71
2021/06/07 05:13:03;;;;;;;19.53;17.63;;;20.20;90.00;;;;;;5166006;27;20207;-71
2021/06/07 05:15:32;;;;;;;22.63;20.43;;;20.30;89.40;;;;;;5164546;27;20207;-71
2021/06/07 05:18:00;;;;;;;22.97;19.53;;;20.50;88.70;;;;;;5161328;27;20199;-71
2021/06/07 05:20:28;;;;;;;20.83;18.57;;;20.60;88.20;;;;;;5167383;27;20210;-71
2021/06/07 05:22:57;;;;;;;19.13;17.23;;;20.70;87.90;;;;;;5166603;27;20211;-71
2021/06/07 05:25:27;;;;;;;22.23;19.87;;;20.80;87.60;;;;;;5168983;27;20583;-71
2021/06/07 05:27:57;;;;;;;22.27;19.43;;;20.90;87.30;;;;;;5161040;27;20222;-71
2021/06/07 05:30:26;;;;;;;19.93;18.00;;;21.10;87.00;;;;;;5167431;27;20293;-71
2021/06/07 05:32:54;;;;;;;21.83;19.70;;;21.30;86.50;;;;;;5164177;27;20225;-71
2021/06/07 05:35:24;;;;;;;22.53;19.80;;;21.50;86.00;;;;;;5167503;27;20218;-71
2021/06/07 05:37:51;;;;;;;24.17;21.60;;;21.70;85.40;;;;;;5164422;27;20659;-71
2021/06/07 05:40:19;;;;;;;23.80;21.13;;;21.90;84.60;;;;;;5167911;27;20217;-71
2021/06/07 05:42:47;;;;;;;21.23;19.07;;;22.00;83.90;;;;;;5166951;27;20206;-71
2021/06/07 05:45:15;;;;;;;20.57;18.50;;;22.10;83.60;;;;;;5166548;27;20222;-71
2021/06/07 05:47:43;;;;;;;18.13;15.30;;;22.10;83.50;;;;;;5165228;27;20218;-71
2021/06/07 05:50:13;;;;;;;16.97;15.17;;;22.30;82.90;;;;;;5167749;27;20280;-71
2021/06/07 05:52:46;;;;;;;17.03;14.77;;;22.30;82.30;;;;;;5167018;27;20454;-71
2021/06/07 05:55:18;;;;;;;16.37;14.63;;;22.30;82.20;;;;;;5167663;27;20657;-71
2021/06/07 05:57:46;;;;;;;17.10;15.30;;;22.20;82.20;;;;;;5167985;27;20206;-72
2021/06/07 06:00:16;;;;;;;15.60;14.10;;;22.20;82.20;;;;;;5167248;27;20218;-71
2021/06/07 06:02:43;;;;;;;15.53;13.43;;;22.10;82.10;;;;;;5163814;27;20230;-71
2021/06/07 06:05:11;;;;;;;16.77;15.17;;;22.10;82.30;;;;;;5166505;27;20210;-71
2021/06/07 06:07:38;;;;;;;17.10;15.40;;;22.10;82.50;;;;;;5164521;27;20217;-71
2021/06/07 06:10:06;;;;;;;17.57;15.73;;;22.10;82.20;;;;;;5167775;27;20221;-71
2021/06/07 06:12:33;;;;;;;16.70;14.93;;;22.20;82.10;;;;;;5149797;27;20221;-71
2021/06/07 06:15:01;;;;;;;16.50;14.80;;;22.20;82.30;;;;;;5165988;27;20217;-71
2021/06/07 06:17:28;;;;;;;16.63;14.80;;;22.20;82.20;;;;;;5167675;27;20221;-71
2021/06/07 06:19:55;;;;;;;17.43;15.27;;;22.20;81.90;;;;;;5167972;27;20215;-71
2021/06/07 06:22:22;;;;;;;23.10;20.80;;;22.30;81.60;;;;;;5166990;27;20230;-71
2021/06/07 06:24:50;;;;;;;23.87;21.60;;;22.40;81.90;;;;;;5158708;27;20218;-71
2021/06/07 06:27:17;;;;;;;22.00;19.80;;;22.50;81.90;;;;;;5166236;27;20551;-71
2021/06/07 06:29:44;;;;;;;19.33;17.60;;;22.70;81.50;;;;;;5158049;27;20202;-71
2021/06/07 06:32:12;;;;;;;19.10;17.07;;;22.80;80.50;;;;;;5166766;27;20217;-71
2021/06/07 06:34:40;;;;;;;16.97;15.17;;;22.80;80.40;;;;;;5166943;27;20211;-71
2021/06/07 06:37:08;;;;;;;16.80;14.80;;;22.80;80.70;;;;;;5162573;27;20209;-71
2021/06/07 06:39:35;;;;;;;14.17;12.77;;;22.90;80.90;;;;;;5163636;27;20234;-71
2021/06/07 06:42:04;;;;;;;15.60;14.10;;;23.00;80.20;;;;;;5161507;27;20573;-71
2021/06/07 06:44:31;;;;;;;16.77;13.63;;;23.20;79.90;;;;;;5160839;27;20210;-71
2021/06/07 06:46:58;;;;;;;16.57;14.83;;;23.40;79.60;;;;;;5164950;27;20217;-71
2021/06/07 06:49:25;;;;;;;19.07;15.03;;;23.60;78.40;;;;;;5162997;27;20206;-71
2021/06/07 06:51:54;;;;;;;13.80;12.43;;;23.80;78.40;;;;;;5158454;27;20234;-71
2021/06/07 06:54:22;;;;;;;18.40;13.07;;;23.90;76.40;;;;;;5159418;27;20214;-71
2021/06/07 06:56:50;;;;;;;15.37;13.80;;;23.90;76.20;;;;;;5164683;27;20223;-71
2021/06/07 06:59:18;;;;;;;16.93;15.27;;;24.00;76.30;;;;;;5163549;27;20211;-71
2021/06/07 07:01:45;;;;;;;15.57;14.17;;;24.00;75.80;;;;;;5161869;27;20230;-71
2021/06/07 07:04:12;;;;;;;18.23;16.47;;;24.00;75.00;;;;;;5162478;27;20220;-71
2021/06/07 07:06:40;;;;;;;22.30;19.90;;;24.10;75.30;;;;;;5163400;27;20210;-71
2021/06/07 07:09:07;;;;;;;21.17;18.80;;;24.10;74.80;;;;;;5166440;27;20218;-71
2021/06/07 07:11:34;;;;;;;19.27;17.37;;;24.10;75.20;;;;;;5164236;27;20229;-71
2021/06/07 07:14:02;;;;;;;20.20;15.57;;;24.10;74.80;;;;;;5163055;27;20218;-71
2021/06/07 07:16:30;;;;;;;18.27;16.40;;;24.10;74.50;;;;;;5162586;27;20643;-71
2021/06/07 07:18:57;;;;;;;18.60;16.77;;;24.00;74.40;;;;;;5163168;27;20230;-71
2021/06/07 07:21:24;;;;;;;19.13;17.23;;;23.90;74.70;;;;;;5164836;27;20237;-71
2021/06/07 07:23:51;;;;;;;17.40;15.20;;;24.00;75.40;;;;;;5164838;27;20215;-70
2021/06/07 07:26:18;;;;;;;18.40;15.80;;;24.10;74.60;;;;;;5163706;27;20213;-71
2021/06/07 07:28:45;;;;;;;16.10;14.43;;;24.30;74.00;;;;;;5163868;27;20609;-71
2021/06/07 07:31:12;;;;;;;15.20;13.80;;;24.40;73.60;;;;;;5166067;27;20539;-71
2021/06/07 07:33:44;;;;;;;17.87;14.97;;;24.50;73.40;;;;;;5167219;27;20261;-71
2021/06/07 07:36:12;;;;;;;17.57;14.97;;;24.60;72.70;;;;;;5168026;27;20217;-71
2021/06/07 07:38:39;;;;;;;17.93;16.23;;;24.70;72.40;;;;;;5169390;27;20210;-71
2021/06/07 07:41:07;;;;;;;21.53;16.73;;;24.60;72.20;;;;;;5166459;27;20225;-71
2021/06/07 07:43:34;;;;;;;15.47;13.87;;;24.50;73.10;;;;;;5166315;27;20203;-71
2021/06/07 07:46:01;;;;;;;13.30;11.97;;;24.50;73.10;;;;;;5167525;27;20218;-71
2021/06/07 07:48:28;;;;;;;14.93;13.37;;;24.60;72.80;;;;;;5170631;27;20214;-71
2021/06/07 07:50:55;;;;;;;12.97;11.67;;;24.70;72.20;;;;;;5167570;27;20306;-70
2021/06/07 07:53:24;;;;;;;17.73;14.00;;;24.90;71.60;;;;;;5169613;27;20218;-70
2021/06/07 07:55:52;;;;;;;15.43;13.80;;;25.10;71.10;;;;;;5166823;27;20271;-71
2021/06/07 07:58:19;;;;;;;13.63;12.30;;;25.30;70.50;;;;;;5169588;27;20202;-71
2021/06/07 08:00:49;;;;;;;16.93;15.33;;;25.60;70.30;;;;;;5167878;27;20580;-71
2021/06/07 08:03:16;;;;;;;15.57;14.07;;;25.80;69.50;;;;;;5167675;27;20270;-71
2021/06/07 08:05:44;;;;;;;12.40;11.33;;;26.00;69.10;;;;;;5151915;27;20632;-70
2021/06/07 08:08:11;;;;;;;14.70;13.20;;;26.20;68.40;;;;;;5166475;27;20211;-71
2021/06/07 08:10:38;;;;;;;11.87;10.40;;;26.60;67.40;;;;;;5169405;27;20206;-71
2021/06/07 08:13:05;;;;;;;12.10;10.97;;;26.80;66.40;;;;;;5161791;27;20577;-72
2021/06/07 08:15:34;;;;;;;12.03;11.00;;;27.20;65.50;;;;;;5170400;27;20221;-71
2021/06/07 08:18:03;;;;;;;12.17;10.93;;;27.50;63.50;;;;;;5167008;27;20302;-71
2021/06/07 08:20:30;;;;;;;11.20;10.00;;;27.60;62.70;;;;;;5170072;27;20213;-72
2021/06/07 08:22:57;;;;;;;13.43;12.23;;;27.50;63.00;;;;;;5166578;27;20235;-72
2021/06/07 08:25:25;;;;;;;13.13;11.50;;;27.30;61.80;;;;;;5168546;27;20630;-71
2021/06/07 08:27:52;;;;;;;12.27;10.63;;;27.20;63.30;;;;;;5167926;27;20218;-71
2021/06/07 08:30:21;;;;;;;12.80;11.50;;;27.20;63.80;;;;;;5166812;27;20211;-71
2021/06/07 08:32:49;;;;;;;12.17;11.17;;;27.10;63.20;;;;;;5169468;27;20210;-70
2021/06/07 08:35:17;;;;;;;14.43;12.97;;;27.10;62.90;;;;;;5162322;27;20207;-70
2021/06/07 08:37:48;;;;;;;14.17;13.00;;;27.10;63.20;;;;;;5167761;27;20715;-70
2021/06/07 08:40:15;;;;;;;17.20;13.03;;;27.20;62.90;;;;;;5168084;27;20222;-71
2021/06/07 08:42:43;;;;;;;12.77;11.60;;;27.40;63.40;;;;;;5161847;27;20244;-71
2021/06/07 08:45:17;;;;;;;13.17;11.33;;;27.80;62.80;;;;;;5162038;27;20207;-71
2021/06/07 08:47:46;;;;;;;12.13;10.97;;;28.20;61.70;;;;;;5167666;27;20636;-71
2021/06/07 08:50:15;;;;;;;12.73;11.53;;;28.50;61.90;;;;;;5167254;27;20275;-71
2021/06/07 08:52:43;;;;;;;13.13;11.83;;;28.50;60.50;;;;;;5165407;27;20245;-72
2021/06/07 08:55:17;;;;;;;10.97;9.97;;;28.40;59.60;;;;;;5162510;27;20207;-71
2021/06/07 08:57:47;;;;;;;12.17;11.07;;;28.10;60.20;;;;;;5165189;27;20214;-71
2021/06/07 09:00:23;;;;;;;12.67;11.60;;;28.10;61.00;;;;;;5166098;27;20215;-71
2021/06/07 09:02:57;;;;;;;13.47;12.17;;;27.90;60.10;;;;;;5161765;27;20257;-71
2021/06/07 09:05:25;;;;;;;11.73;10.60;;;27.70;60.20;;;;;;5166211;27;20314;-72
2021/06/07 09:07:57;;;;;;;11.53;10.27;;;27.90;60.30;;;;;;5168685;27;20213;-72
2021/06/07 09:10:26;;;;;;;11.60;10.53;;;28.30;59.90;;;;;;5162481;27;20264;-71
2021/06/07 09:13:21;;;;;;;11.83;10.67;;;28.20;59.50;;;;;;5161674;27;20204;-71
2021/06/07 09:15:53;;;;;;;13.13;12.00;;;28.00;60.30;;;;;;5166041;27;20214;-71
2021/06/07 09:18:41;;;;;;;12.67;11.43;;;27.80;59.70;;;;;;5168516;27;20211;-71
2021/06/07 09:21:18;;;;;;;13.13;12.03;;;27.80;59.60;;;;;;5168539;27;20222;-71
2021/06/07 09:23:48;;;;;;;13.07;9.97;;;27.90;60.00;;;;;;5161380;27;20711;-71
2021/06/07 09:26:30;;;;;;;11.50;10.40;;;28.40;59.60;;;;;;5166623;27;20218;-71
2021/06/07 09:29:03;;;;;;;10.63;9.67;;;28.90;58.30;;;;;;5163954;27;20229;-70
2021/06/07 09:31:43;;;;;;;12.30;11.27;;;29.10;58.00;;;;;;5166933;27;20221;-72
2021/06/07 09:34:22;;;;;;;11.03;10.03;;;29.20;56.20;;;;;;5154681;27;20230;-72
2021/06/07 09:36:49;;;;;;;10.20;8.57;;;29.20;56.30;;;;;;5164350;27;20203;-71
2021/06/07 09:39:24;;;;;;;10.23;9.30;;;29.50;57.00;;;;;;5163744;27;20651;-72
2021/06/07 09:42:08;;;;;;;11.13;10.13;;;29.90;56.30;;;;;;5163793;27;20239;-71
2021/06/07 09:44:52;;;;;;;10.93;9.93;;;30.20;55.30;;;;;;5161278;27;20221;-71
2021/06/07 09:47:29;;;;;;;11.03;9.97;;;29.80;54.80;;;;;;5160734;27;20803;-71
2021/06/07 09:50:08;;;;;;;13.10;11.67;;;29.40;55.80;;;;;;5163819;27;20259;-71
2021/06/07 09:52:45;;;;;;;12.30;11.20;;;28.90;55.70;;;;;;5161190;27;20249;-71
2021/06/07 09:55:20;;;;;;;12.13;10.77;;;28.50;57.10;;;;;;5163862;27;20215;-70
2021/06/07 09:58:00;;;;;;;10.00;8.60;;;28.30;58.10;;;;;;5161751;27;20214;-70
2021/06/07 10:00:43;;;;;;;11.23;8.23;;;28.60;58.30;;;;;;5164931;27;20245;-71
2021/06/07 10:03:22;;;;;;;12.73;10.83;;;29.10;57.00;;;;;;5167833;27;20673;-71
2021/06/07 10:06:01;;;;;;;13.13;10.90;;;29.20;56.10;;;;;;5160537;27;20544;-70
2021/06/07 10:08:59;;;;;;;11.33;10.27;;;28.90;56.50;;;;;;5165053;27;20210;-71
2021/06/07 10:11:36;;;;;;;13.10;11.80;;;28.40;57.20;;;;;;5165578;27;20248;-70
2021/06/07 10:14:19;;;;;;;11.37;10.37;;;28.00;57.00;;;;;;5168036;27;20229;-70
2021/06/07 10:17:00;;;;;;;11.33;10.30;;;27.40;58.00;;;;;;5161700;27;20561;-72
2021/06/07 10:22:16;;;;;;;12.17;11.03;;;27.00;61.50;;;;;;5164973;27;20237;-70
2021/06/07 10:24:44;;;;;;;13.60;11.23;;;27.00;61.20;;;;;;5163467;27;20221;-71
2021/06/07 10:27:12;;;;;;;12.17;11.00;;;27.00;61.30;;;;;;5166479;27;20276;-71
2021/06/07 10:29:44;;;;;;;13.10;11.70;;;26.90;61.00;;;;;;5165371;27;20217;-71
2021/06/07 10:32:14;;;;;;;12.07;10.97;;;27.00;60.40;;;;;;5164514;27;20694;-71
2021/06/07 10:34:48;;;;;;;12.63;11.30;;;27.00;60.50;;;;;;5167388;27;20521;-70
2021/06/07 10:37:15;;;;;;;12.63;11.40;;;27.20;60.00;;;;;;5169576;27;20221;-71
2021/06/07 10:39:43;;;;;;;12.93;11.57;;;27.30;59.90;;;;;;5165214;27;20573;-70
2021/06/07 10:42:29;;;;;;;11.73;10.63;;;27.40;58.80;;;;;;5160564;27;20236;-70
2021/06/07 10:45:06;;;;;;;11.33;8.93;;;27.50;58.50;;;;;;5166022;27;20207;-71
2021/06/07 10:47:46;;;;;;;10.07;9.07;;;27.90;58.20;;;;;;5160063;27;20207;-71
2021/06/07 10:50:18;;;;;;;10.03;8.10;;;28.50;57.90;;;;;;5163463;27;20206;-72
2021/06/07 10:52:53;;;;;;;9.30;8.40;;;29.10;55.80;;;;;;5156439;27;20239;-70
2021/06/07 10:55:25;;;;;;;9.23;8.23;;;29.50;54.60;;;;;;5165302;27;20282;-70
2021/06/07 10:58:01;;;;;;;7.97;6.60;;;29.60;55.50;;;;;;5162944;27;20688;-69
2021/06/07 11:00:40;;;;;;;10.80;8.27;;;29.90;55.10;;;;;;5160662;27;20218;-69
2021/06/07 11:03:36;;;;;;;10.67;7.77;;;30.00;52.80;;;;;;5171390;27;20234;-71
2021/06/07 11:06:06;;;;;;;9.17;8.37;;;29.60;53.50;;;;;;5168896;27;20207;-75
2021/06/07 11:08:35;;;;;;;10.03;9.10;;;28.90;54.60;;;;;;5153054;27;20210;-68
2021/06/07 11:11:08;;;;;;;10.27;9.27;;;28.40;56.30;;;;;;5151768;27;20298;-68
2021/06/07 11:13:48;;;;;;;10.90;8.77;;;28.00;57.20;;;;;;5167563;27;20215;-68
2021/06/07 11:16:42;;;;;;;13.20;10.10;;;27.70;59.60;;;;;;5168699;27;20209;-68
2021/06/07 11:19:11;;;;;;;10.37;9.03;;;27.50;58.80;;;;;;5170077;27;20242;-68
2021/06/07 11:21:45;;;;;;;12.10;9.97;;;27.30;60.00;;;;;;5171311;27;20410;-68
2021/06/07 11:24:26;;;;;;;11.47;10.37;;;27.20;60.40;;;;;;5168086;27;20281;-69
2021/06/07 11:26:54;;;;;;;11.43;10.33;;;27.20;61.30;;;;;;5164831;27;20283;-68
2021/06/07 11:29:24;;;;;;;12.13;10.17;;;27.20;61.20;;;;;;5169918;27;20675;-68
2021/06/07 11:31:55;;;;;;;10.90;9.80;;;27.20;61.70;;;;;;5169272;27;20710;-68
2021/06/07 11:34:43;;;;;;;12.20;10.70;;;27.20;62.30;;;;;;5149440;27;20223;-68
2021/06/07 11:37:15;;;;;;;11.90;10.67;;;27.10;61.60;;;;;;5150270;27;20708;-68
2021/06/07 11:39:42;;;;;;;12.40;11.20;;;26.90;62.60;;;;;;5163132;27;20211;-68
2021/06/07 11:42:15;;;;;;;13.87;10.80;;;26.80;62.70;;;;;;5168862;27;20210;-68
2021/06/07 11:45:01;;;;;;;13.83;12.37;;;26.80;62.70;;;;;;5163742;27;20207;-68
2021/06/07 11:47:48;;;;;;;12.80;11.50;;;26.70;63.30;;;;;;5168760;27;20295;-68
2021/06/07 11:50:31;;;;;;;13.37;11.73;;;26.50;64.10;;;;;;5165620;27;20206;-68
2021/06/07 11:53:15;;;;;;;13.60;12.07;;;26.40;66.00;;;;;;5140876;27;20644;-68
2021/06/07 11:55:44;;;;;;;11.93;10.63;;;26.30;65.70;;;;;;5141691;27;20331;-68
2021/06/07 11:58:13;;;;;;;14.53;11.90;;;26.40;66.70;;;;;;5142067;27;20212;-68
2021/06/07 12:00:43;;;;;;;11.53;10.27;;;26.40;65.40;;;;;;5148260;27;20214;-68
2021/06/07 12:03:13;;;;;;;10.73;9.80;;;26.40;66.00;;;;;;5148216;27;20262;-68
2021/06/07 12:05:41;;;;;;;11.03;9.87;;;26.40;64.70;;;;;;5148723;27;20261;-68
2021/06/07 12:08:11;;;;;;;10.63;8.67;;;26.40;65.10;;;;;;5141929;27;20226;-68
2021/06/07 12:10:40;;;;;;;10.17;9.10;;;26.40;65.80;;;;;;5148118;27;20214;-68
2021/06/07 12:13:17;;;;;;;11.37;9.00;;;26.50;64.50;;;;;;5147195;27;20212;-68
2021/06/07 12:15:49;;;;;;;9.00;7.57;;;26.50;63.80;;;;;;5141664;27;20556;-68
2021/06/07 12:18:29;;;;;;;7.80;7.10;;;26.40;62.70;;;;;;5145384;27;20207;-68
2021/06/07 12:21:05;;;;;;;6.90;6.30;;;26.40;63.80;;;;;;5141455;27;20260;-68
2021/06/07 12:23:38;;;;;;;8.40;5.93;;;26.30;64.70;;;;;;5145745;27;20246;-68
2021/06/07 12:29:32;;;;;;;7.20;5.83;;;26.40;63.90;;;;;;5145188;27;20745;-68
2021/06/07 12:32:08;;;;;;;6.27;5.67;;;26.50;64.10;;;;;;5143710;27;20203;-68
2021/06/07 12:34:37;;;;;;;6.97;6.00;;;26.50;62.40;;;;;;5145434;27;20618;-68
2021/06/07 12:37:05;;;;;;;6.30;4.93;;;26.40;63.00;;;;;;5140537;27;20208;-68
2021/06/07 12:39:32;;;;;;;6.17;5.57;;;26.50;64.30;;;;;;5147019;27;20211;-68
2021/06/07 12:41:59;;;;;;;8.03;5.67;;;26.50;64.70;;;;;;5146009;27;20207;-68
2021/06/07 12:44:27;;;;;;;6.90;6.17;;;26.50;65.00;;;;;;5145901;27;20230;-68
2021/06/07 12:46:55;;;;;;;5.63;5.00;;;26.60;64.70;;;;;;5144177;27;20219;-68
2021/06/07 12:49:28;;;;;;;6.57;5.20;;;26.60;64.50;;;;;;5144876;27;20235;-68
2021/06/07 12:52:04;;;;;;;9.77;5.50;;;26.70;64.20;;;;;;5156683;27;20234;-68
2021/06/07 12:54:33;;;;;;;6.17;4.70;;;26.90;63.90;;;;;;5169115;27;20210;-68
2021/06/07 12:57:01;;;;;;;5.73;5.23;;;27.10;63.20;;;;;;5158352;27;20210;-68
2021/06/07 12:59:33;;;;;;;6.33;5.07;;;27.30;62.10;;;;;;5167530;27;20211;-68
2021/06/07 13:02:01;;;;;;;8.67;5.00;;;27.60;60.90;;;;;;5167243;27;20218;-68
2021/06/07 13:04:34;;;;;;;8.93;5.20;;;27.80;60.40;;;;;;5165017;27;20244;-68